createdAt,value
2023-04-18T00:03:41.351Z,74.56
2023-04-18T00:07:44.117Z,74.83
2023-04-18T00:11:50.287Z,75.50
2023-04-18T00:15:54.182Z,75.25
2023-04-18T00:19:58.242Z,75.18
2023-04-18T00:24:00.969Z,75.38
2023-04-18T00:28:05.214Z,75.62
2023-04-18T00:32:09.679Z,75.38
2023-04-18T00:36:12.386Z,75.97
2023-04-18T00:40:17.909Z,76.54
2023-04-18T00:44:22.102Z,76.92
2023-04-18T00:48:25.420Z,77.07
2023-04-18T00:52:30.514Z,77.53
2023-04-18T00:56:33.581Z,77.57
2023-04-18T01:00:37.849Z,77.94
2023-04-18T01:04:41.493Z,78.36
2023-04-18T01:08:46.013Z,78.36
2023-04-18T01:12:48.742Z,78.73
2023-04-18T01:16:53.207Z,78.59
2023-04-18T01:20:57.021Z,78.41
2023-04-18T01:25:01.168Z,78.62
2023-04-18T01:29:03.932Z,78.91
2023-04-18T01:33:07.296Z,78.98
2023-04-18T01:37:10.035Z,79.95
2023-04-18T01:41:14.220Z,80.02
2023-04-18T01:45:20.245Z,80.49
2023-04-18T01:49:22.968Z,80.34
2023-04-18T01:53:25.685Z,80.66
2023-04-18T01:57:29.883Z,80.51
2023-04-18T02:01:32.576Z,80.67
2023-04-18T02:05:37.419Z,80.95
2023-04-18T02:09:42.295Z,80.61
2023-04-18T02:13:48.670Z,80.95
2023-04-18T02:17:51.492Z,81.71
2023-04-18T02:21:54.262Z,81.37
2023-04-18T02:25:56.973Z,81.57
2023-04-18T02:30:01.117Z,81.67
2023-04-18T02:34:03.895Z,81.67
2023-04-18T02:38:06.600Z,81.77
2023-04-18T02:42:09.301Z,82.31
2023-04-18T02:46:13.478Z,82.40
2023-04-18T02:50:16.240Z,82.36
2023-04-18T02:54:19.239Z,82.32
2023-04-18T02:58:34.779Z,82.40
2023-04-18T03:03:05.509Z,83.18
2023-04-18T03:07:16.122Z,83.29
2023-04-18T03:11:18.894Z,83.05
2023-04-18T03:15:22.544Z,82.99
2023-04-18T03:19:26.709Z,84.11
2023-04-18T03:23:31.441Z,84.41
2023-04-18T03:27:37.300Z,85.00
2023-04-18T03:31:41.506Z,85.29
2023-04-18T03:35:45.777Z,85.51
2023-04-18T03:39:48.867Z,86.21
2023-04-18T03:43:51.690Z,86.86
2023-04-18T03:47:54.569Z,86.63
2023-04-18T03:51:59.857Z,86.92
2023-04-18T03:56:02.804Z,87.76
2023-04-18T04:00:26.816Z,87.86
2023-04-18T04:04:41.209Z,88.00
2023-04-18T04:08:47.503Z,88.55
2023-04-18T04:12:55.320Z,89.04
2023-04-18T04:16:58.807Z,89.90
2023-04-18T04:21:01.802Z,90.17
2023-04-18T04:25:18.240Z,90.59
2023-04-18T04:29:23.765Z,90.70
2023-04-18T04:33:29.321Z,91.06
2023-04-18T04:37:36.364Z,91.77
2023-04-18T04:41:53.459Z,91.52
2023-04-18T04:45:58.616Z,91.84
2023-04-18T04:50:01.398Z,92.06
2023-04-18T04:54:04.282Z,93.12
2023-04-18T04:58:08.414Z,92.10
2023-04-18T05:02:33.107Z,92.69
2023-04-18T05:06:36.277Z,92.69
2023-04-18T05:10:40.929Z,92.26
2023-04-18T05:14:45.038Z,92.76
2023-04-18T05:18:47.918Z,92.24
2023-04-18T05:22:50.608Z,92.94
2023-04-18T05:26:53.679Z,92.07
2023-04-18T05:31:01.304Z,92.87
2023-04-18T05:35:04.534Z,92.78
2023-04-18T05:39:07.396Z,93.25
2023-04-18T05:43:10.082Z,93.24
2023-04-18T05:47:14.468Z,93.68
2023-04-18T05:51:17.212Z,93.27
2023-04-18T05:55:19.934Z,94.34
2023-04-18T05:59:22.690Z,94.30
2023-04-18T06:03:27.056Z,94.52
2023-04-18T06:07:30.076Z,94.69
2023-04-18T06:11:33.585Z,94.38
2023-04-18T06:15:36.426Z,94.55
2023-04-18T06:19:40.601Z,94.26
2023-04-18T06:23:43.445Z,93.78
2023-04-18T06:27:46.216Z,93.13
2023-04-18T06:31:50.377Z,93.10
2023-04-18T06:35:54.650Z,93.20
2023-04-18T06:39:57.571Z,94.10
2023-04-18T06:44:04.118Z,94.96
2023-04-18T06:48:09.104Z,95.27
2023-04-18T06:52:13.285Z,96.05
2023-04-18T06:56:16.067Z,96.25
2023-04-18T07:00:19.419Z,96.55
2023-04-18T07:04:22.372Z,96.41
2023-04-18T07:08:26.616Z,96.72
2023-04-18T07:12:29.362Z,97.63
2023-04-18T07:16:32.198Z,97.75
2023-04-18T07:20:35.081Z,98.08
2023-04-18T07:24:39.945Z,97.41
2023-04-18T07:28:42.868Z,97.88
2023-04-18T07:32:47.255Z,98.33
2023-04-18T07:36:50.316Z,98.37
2023-04-18T07:40:59.113Z,99.09
2023-04-18T07:45:02.078Z,98.72
2023-04-18T07:49:04.902Z,98.12
2023-04-18T07:53:08.185Z,97.78
2023-04-18T07:57:12.402Z,98.65
2023-04-18T08:01:18.203Z,97.86
2023-04-18T08:05:21.250Z,97.57
2023-04-18T08:09:24.004Z,97.40
2023-04-18T08:13:28.174Z,95.85
2023-04-18T08:17:31.056Z,95.25
2023-04-18T08:21:33.861Z,94.18
2023-04-18T08:25:37.149Z,94.58
2023-04-18T08:29:41.370Z,94.07
2023-04-18T08:33:44.144Z,93.30
2023-04-18T08:37:46.862Z,92.56
2023-04-18T08:41:59.438Z,92.73
2023-04-18T08:46:03.616Z,92.65
2023-04-18T08:50:07.659Z,92.36
2023-04-18T08:54:12.336Z,91.62
2023-04-18T08:58:22.235Z,91.21
2023-04-18T09:02:38.905Z,90.22
2023-04-18T09:06:52.871Z,89.08
2023-04-18T09:10:56.159Z,87.19
2023-04-18T09:15:12.300Z,85.67
2023-04-18T09:19:18.167Z,85.33
2023-04-18T09:23:26.001Z,83.23
2023-04-18T09:27:35.999Z,82.62
2023-04-18T09:32:00.999Z,81.81
2023-04-18T09:36:22.297Z,82.34
2023-04-18T09:40:25.130Z,80.61
2023-04-18T09:44:28.011Z,79.18
2023-04-18T09:48:30.813Z,78.13
2023-04-18T09:52:37.775Z,76.37
2023-04-18T09:56:43.808Z,77.50
2023-04-18T10:00:47.082Z,75.10
2023-04-18T10:04:51.450Z,73.46
2023-04-18T10:08:57.003Z,72.39
2023-04-18T10:13:02.040Z,71.36
2023-04-18T10:17:04.922Z,71.45
2023-04-18T10:21:10.134Z,71.04
2023-04-18T10:25:14.319Z,71.95
2023-04-18T10:29:18.813Z,73.33
2023-04-18T10:33:30.864Z,73.89
2023-04-18T10:37:35.004Z,72.54
2023-04-18T10:41:51.013Z,70.60
2023-04-18T10:46:20.446Z,69.06
2023-04-18T10:50:31.122Z,67.92
2023-04-18T10:54:39.717Z,67.11
2023-04-18T10:58:49.284Z,66.63
2023-04-18T11:02:55.902Z,67.14
2023-04-18T11:06:59.421Z,67.40
2023-04-18T11:11:04.080Z,67.13
2023-04-18T11:15:14.221Z,67.54
2023-04-18T11:19:21.315Z,67.87
2023-04-18T11:23:25.134Z,68.41
2023-04-18T11:27:27.869Z,69.15
2023-04-18T11:31:32.013Z,69.50
2023-04-18T11:35:38.560Z,68.83
2023-04-18T11:39:43.405Z,67.88
2023-04-18T11:43:47.676Z,65.37
2023-04-18T11:47:58.116Z,66.37
2023-04-18T11:52:01.382Z,63.49
2023-04-18T11:56:04.556Z,62.04
2023-04-18T12:00:09.082Z,59.05
2023-04-18T12:04:13.657Z,61.16
2023-04-18T12:08:20.563Z,61.48
2023-04-18T12:12:23.777Z,61.53
2023-04-18T12:16:28.207Z,62.23
2023-04-18T12:20:37.429Z,62.58
2023-04-18T12:24:40.267Z,62.28
2023-04-18T12:28:47.999Z,61.14
2023-04-18T12:32:52.583Z,59.96
2023-04-18T12:36:57.037Z,58.93
2023-04-18T12:40:59.750Z,58.30
2023-04-18T12:45:03.464Z,56.81
2023-04-18T12:49:06.363Z,57.37
2023-04-18T12:53:10.659Z,56.69
2023-04-18T12:57:13.450Z,57.04
2023-04-18T13:01:16.522Z,56.67
2023-04-18T13:05:21.315Z,56.39
2023-04-18T13:09:26.856Z,55.69
2023-04-18T13:13:32.913Z,55.66
2023-04-18T13:17:37.399Z,54.57
2023-04-18T13:21:40.178Z,53.09
2023-04-18T13:25:44.348Z,53.41
2023-04-18T13:29:47.106Z,52.59
2023-04-18T13:33:49.841Z,51.50
2023-04-18T13:37:52.632Z,51.58
2023-04-18T13:41:56.783Z,51.54
2023-04-18T13:46:00.660Z,51.60
2023-04-18T13:50:03.676Z,49.34
2023-04-18T13:54:06.585Z,49.65
2023-04-18T13:58:10.849Z,49.95
2023-04-18T14:02:13.959Z,49.87
2023-04-18T14:06:16.868Z,49.57
2023-04-18T14:10:20.046Z,50.25
2023-04-18T14:14:24.873Z,49.59
2023-04-18T14:18:28.488Z,50.09
2023-04-18T14:22:31.337Z,50.71
2023-04-18T14:26:34.082Z,50.44
2023-04-18T14:30:39.464Z,51.13
2023-04-18T14:34:42.783Z,51.51
2023-04-18T14:38:48.418Z,51.10
2023-04-18T14:42:51.503Z,51.38
2023-04-18T14:46:55.746Z,50.54
2023-04-18T14:50:58.794Z,50.98
2023-04-18T14:55:01.615Z,50.59
2023-04-18T14:59:04.432Z,50.44
2023-04-18T15:03:11.177Z,50.25
2023-04-18T15:07:15.057Z,49.84
2023-04-18T15:11:17.761Z,49.25
2023-04-18T15:15:20.818Z,48.60
2023-04-18T15:19:25.046Z,49.06
2023-04-18T15:23:28.074Z,49.18
2023-04-18T15:27:30.947Z,49.40
2023-04-18T15:31:34.078Z,49.46
2023-04-18T15:35:38.226Z,49.95
2023-04-18T15:39:40.970Z,50.09
2023-04-18T15:43:45.427Z,50.26
2023-04-18T15:47:48.381Z,50.23
2023-04-18T15:51:52.525Z,50.48
2023-04-18T15:55:55.434Z,50.13
2023-04-18T15:59:59.436Z,49.95
2023-04-18T16:04:02.476Z,50.17
2023-04-18T16:08:08.845Z,50.54
2023-04-18T16:12:11.595Z,51.09
2023-04-18T16:16:14.747Z,51.28
2023-04-18T16:20:17.996Z,52.00
2023-04-18T16:24:22.085Z,51.99
2023-04-18T16:28:24.896Z,51.74
2023-04-18T16:32:27.676Z,51.71
2023-04-18T16:36:30.832Z,51.79
2023-04-18T16:40:35.061Z,51.88
2023-04-18T16:44:39.321Z,52.49
2023-04-18T16:48:42.196Z,52.64
2023-04-18T16:52:44.975Z,53.05
2023-04-18T16:56:49.038Z,52.96
2023-04-18T17:00:52.595Z,53.65
2023-04-18T17:04:55.671Z,54.48
2023-04-18T17:08:58.917Z,54.59
2023-04-18T17:13:04.122Z,55.09
2023-04-18T17:17:07.201Z,55.55
2023-04-18T17:21:12.372Z,55.85
2023-04-18T17:25:15.107Z,56.16
2023-04-18T17:29:19.471Z,56.32
2023-04-18T17:33:22.273Z,57.26
2023-04-18T17:37:25.127Z,57.37
2023-04-18T17:41:27.933Z,57.66
2023-04-18T17:45:32.176Z,58.24
2023-04-18T17:49:36.052Z,58.80
2023-04-18T17:53:39.022Z,59.05
2023-04-18T17:57:41.815Z,59.66
2023-04-18T18:01:46.097Z,60.40
2023-04-18T18:05:50.698Z,61.18
2023-04-18T18:09:53.440Z,61.94
2023-04-18T18:13:57.362Z,62.41
2023-04-18T18:18:01.835Z,63.11
2023-04-18T18:22:04.654Z,63.79
2023-04-18T18:26:07.426Z,64.00
2023-04-18T18:30:10.753Z,64.67
2023-04-18T18:34:14.929Z,65.35
2023-04-18T18:38:17.777Z,65.62
2023-04-18T18:42:20.897Z,66.04
2023-04-18T18:46:23.658Z,66.75
2023-04-18T18:50:27.762Z,67.17
2023-04-18T18:54:30.591Z,67.31
2023-04-18T18:58:33.311Z,67.57
2023-04-18T19:02:36.138Z,67.60
2023-04-18T19:06:40.484Z,68.01
2023-04-18T19:10:43.200Z,68.22
2023-04-18T19:14:46.972Z,68.29
2023-04-18T19:18:50.620Z,68.91
2023-04-18T19:22:54.715Z,69.20
2023-04-18T19:26:57.425Z,69.56
2023-04-18T19:31:00.151Z,70.03
2023-04-18T19:35:02.928Z,70.40
2023-04-18T19:39:07.017Z,70.49
2023-04-18T19:43:09.905Z,71.08
2023-04-18T19:47:12.924Z,71.06
2023-04-18T19:51:15.718Z,71.77
2023-04-18T19:55:19.850Z,72.02
2023-04-18T19:59:22.509Z,72.62
2023-04-18T20:03:25.534Z,73.53
2023-04-18T20:07:28.327Z,73.94
2023-04-18T20:11:32.465Z,74.51
2023-04-18T20:15:35.203Z,74.78
2023-04-18T20:19:37.986Z,75.26
2023-04-18T20:23:42.057Z,76.07
2023-04-18T20:27:46.268Z,76.96
2023-04-18T20:31:48.977Z,77.02
2023-04-18T20:35:53.647Z,77.53
2023-04-18T20:39:56.600Z,77.90
2023-04-18T20:44:05.008Z,78.58
2023-04-18T20:48:08.335Z,78.86
2023-04-18T20:52:11.048Z,79.77
2023-04-18T20:56:13.740Z,80.13
2023-04-18T21:00:18.469Z,80.37
2023-04-18T21:04:21.921Z,80.86
2023-04-18T21:08:24.707Z,81.62
2023-04-18T21:12:28.328Z,82.46
2023-04-18T21:16:32.403Z,82.71
2023-04-18T21:20:36.508Z,83.04
2023-04-18T21:24:40.339Z,83.56
2023-04-18T21:28:57.132Z,83.89
2023-04-18T21:33:01.246Z,84.49
2023-04-18T21:37:03.987Z,85.01
2023-04-18T21:41:07.141Z,86.22
2023-04-18T21:45:11.808Z,86.93
2023-04-18T21:49:16.134Z,87.74
2023-04-18T21:53:18.784Z,88.96
2023-04-18T21:57:21.536Z,89.14
2023-04-18T22:01:24.223Z,89.95
2023-04-18T22:05:28.886Z,91.01
2023-04-18T22:09:33.844Z,91.32
2023-04-18T22:13:36.601Z,92.49
2023-04-18T22:17:41.750Z,92.76
2023-04-18T22:21:45.989Z,93.21
2023-04-18T22:25:49.187Z,93.47
2023-04-18T22:29:52.038Z,94.40
2023-04-18T22:33:54.781Z,95.66
2023-04-18T22:37:58.968Z,95.32
2023-04-18T22:42:02.629Z,95.62
2023-04-18T22:46:05.498Z,95.51
2023-04-18T22:50:09.621Z,96.05
2023-04-18T22:54:13.873Z,96.36
2023-04-18T22:58:17.044Z,96.41
2023-04-18T23:02:19.865Z,96.85
2023-04-18T23:06:23.072Z,96.80
2023-04-18T23:10:27.202Z,97.42
2023-04-18T23:14:30.161Z,97.55
2023-04-18T23:18:32.838Z,97.49
2023-04-18T23:22:35.583Z,97.67
2023-04-18T23:26:39.730Z,97.49
2023-04-18T23:30:42.482Z,97.76
2023-04-18T23:34:46.175Z,97.79
2023-04-18T23:38:48.920Z,97.75
2023-04-18T23:42:52.959Z,97.61
2023-04-18T23:46:55.760Z,97.08
2023-04-18T23:50:59.038Z,97.00
2023-04-18T23:55:02.169Z,96.69
2023-04-18T23:59:06.305Z,96.53
